Eviapetrol II — SY6858 — position and weather

sailwx.info

Track history (hours):
 
Tides and Currents Weather Stations Pressure Air Temp Water Temp Dewpoint Dewpoint Depression Visibility Wind Speed Wind Dir Waves Ship Positions

Eviapetrol II

Last reported at 2015-May-27 17:33 UTC. Time now 2015-May-27 19:53 UTC.
Position N 38°02' E 023°36'.

Length 78 m; draft 4 m.

Type: Tanker. MMSI: 240493000.

Date/timePositionNaut miles runAvg speedWind from/ knotsBaromVisibWave heightAir tempDewpointWater temp
2015-May-27 17:33N 38°02' E 023°36'0 0.0
2015-May-27 16:31N 38°02' E 023°36'0 0.0
2015-May-27 15:17N 38°02' E 023°36'0 0.0
2015-May-27 14:29N 38°02' E 023°36'0 0.0
2015-May-27 13:05N 38°02' E 023°36'0 0.0
2015-May-27 12:31N 38°02' E 023°36'3 2.5
2015-May-27 11:24N 38°02' E 023°32'5 5.8
2015-May-27 10:33N 37°57' E 023°34'7 7.5
2015-May-27 09:33N 37°51' E 023°40'1010.2
2015-May-27 08:33N 37°42' E 023°45'9 9.3
2015-May-27 07:33N 37°38' E 023°56'  
2015-May-23 23:24N 36°30' E 027°39'8 9.1
2015-May-23 22:31N 36°31' E 027°29'9 9.1
2015-May-23 21:34N 36°31' E 027°18'9 9.2
2015-May-23 20:33N 36°31' E 027°06'19 9.0
2015-May-23 18:28N 36°40' E 026°46'9 9.5
2015-May-23 17:33N 36°46' E 026°37'11 9.4
2015-May-23 16:23N 36°52' E 026°26'8 9.2
2015-May-23 15:33N 36°56' E 026°18'12 9.0
2015-May-23 14:15N 37°02' E 026°05'8 9.0
2015-May-23 13:24N 37°06' E 025°57'7 8.9
2015-May-23 12:34N 37°10' E 025°49'9 9.0
2015-May-23 11:33N 37°13' E 025°38'9 9.2
2015-May-23 10:33N 37°15' E 025°27'9 9.5
2015-May-23 09:33N 37°17' E 025°15'9 9.1
2015-May-23 08:33N 37°19' E 025°04'9 8.9
2015-May-23 07:33N 37°21' E 024°53'54 9.0
2015-May-23 01:33N 37°38' E 023°48'9 8.8
2015-May-23 00:33N 37°44' E 023°40'9 8.7
2015-May-22 23:34N 37°49' E 023°32'9 8.8
2015-May-22 22:33N 37°54' E 023°22'8 7.7
2015-May-22 21:33N 38°00' E 023°28'6 0.7
2015-May-22 12:33N 38°01' E 023°35'0 0.0
2015-May-22 10:33N 38°01' E 023°35'0 0.0
2015-May-22 09:33N 38°01' E 023°35'0 0.0
2015-May-22 08:33N 38°01' E 023°35'0 0.0
2015-May-22 07:33N 38°01' E 023°35'0 0.0
2015-May-22 06:33N 38°01' E 023°35'1 0.2
2015-May-22 02:33N 38°02' E 023°36'0 0.0
2015-May-22 01:11N 38°02' E 023°36'0 0.0
2015-May-22 00:22N 38°02' E 023°36'0 0.0
2015-May-21 23:32N 38°02' E 023°36'0 0.0
2015-May-21 22:33N 38°02' E 023°36'0 0.0
2015-May-21 21:33N 38°02' E 023°36'0 0.0
2015-May-21 20:33N 38°02' E 023°36'3 2.6
2015-May-21 19:33N 38°01' E 023°32'12 1.3
2015-May-21 10:33N 37°56' E 023°19'1110.6
2015-May-21 09:33N 37°54' E 023°06'32 7.9
2015-May-21 05:32N 38°09' E 022°31'127 9.0
2015-May-20 15:24N 39°19' E 020°15'910.3
2015-May-20 14:33N 39°26' E 020°08'1010.2
2015-May-20 13:33N 39°34' E 020°00'8 8.5
2015-May-20 12:33N 39°39' E 019°51'0 0.4
2015-May-20 11:33N 39°39' E 019°51'0 0.0
2015-May-20 10:33N 39°39' E 019°51'0 0.0
2015-May-20 09:33N 39°39' E 019°51'0 0.0
2015-May-20 08:33N 39°39' E 019°51'0 0.0
2015-May-20 07:33N 39°39' E 019°51'0 0.0
2015-May-20 06:33N 39°39' E 019°51'0 0.0
2015-May-20 05:33N 39°39' E 019°51'0 0.2
2015-May-20 04:34N 39°39' E 019°51'1 1.5
2015-May-20 03:33N 39°39' E 019°53'0 0.0
2015-May-20 02:33N 39°39' E 019°53'0 0.1
2015-May-20 01:33N 39°38' E 019°53'0 0.0
2015-May-20 00:33N 39°39' E 019°53'0 0.1
2015-May-19 23:33N 39°39' E 019°53'0 0.0
2015-May-19 22:33N 39°39' E 019°53'0 0.0
2015-May-19 21:33N 39°39' E 019°53'0 0.0
2015-May-19 20:33N 39°39' E 019°53'0 0.1
2015-May-19 19:34N 39°39' E 019°53'0 0.0
2015-May-19 18:33N 39°38' E 019°53'0 0.1
2015-May-19 14:34N 39°38' E 019°53'0 0.0
2015-May-19 13:32N 39°38' E 019°53'0 0.0
2015-May-19 12:32N 39°38' E 019°53'0 0.0
2015-May-19 11:32N 39°38' E 019°53'0 0.0
2015-May-19 10:32N 39°38' E 019°53'0 0.0
2015-May-19 09:32N 39°38' E 019°53'0 0.0
2015-May-19 08:32N 39°38' E 019°53'0 0.0
2015-May-19 07:32N 39°38' E 019°53'0 0.0
2015-May-19 06:32N 39°38' E 019°53'0 0.0
2015-May-19 05:32N 39°38' E 019°53'2 1.7
2015-May-19 04:32N 39°39' E 019°55'10 9.8
2015-May-19 03:33N 39°32' E 020°03'1010.3
2015-May-19 02:33N 39°24' E 020°11'162 8.3
2015-May-18 07:08N 37°54' E 023°03'6 9.6
2015-May-18 06:29N 37°55' E 023°11'910.1
2015-May-18 05:33N 37°57' E 023°23'8 8.1
2015-May-18 04:33N 38°02' E 023°31'4 3.0
2015-May-18 03:23N 38°02' E 023°36'0 0.0
2015-May-18 02:30N 38°02' E 023°36'0 0.0
2015-May-18 01:33N 38°02' E 023°36'0 0.0
2015-May-18 00:33N 38°02' E 023°36'0 0.0
2015-May-17 23:32N 38°02' E 023°36'4 4.1
2015-May-17 22:33N 38°02' E 023°31'1 0.2
2015-May-17 20:16N 38°02' E 023°30'0 0.0
2015-May-17 19:28N 38°02' E 023°30'  
Track history (hours):
 
Tides and Currents Weather Stations Pressure Air Temp Water Temp Dewpoint Dewpoint Depression Visibility Wind Speed Wind Dir Waves Ship Positions

Eviapetrol II

Last reported at 2015-May-27 17:33 UTC. Time now 2015-May-27 19:53 UTC.
Position N 38°02' E 023°36'.

Length 78 m; draft 4 m.

Type: Tanker. MMSI: 240493000.

Date/timePositionNaut miles runAvg speedWind from/ knotsBaromVisibWave heightAir tempDewpointWater temp
2015-May-27 17:33N 38°02' E 023°36'0 0.0
2015-May-27 16:31N 38°02' E 023°36'0 0.0
2015-May-27 15:17N 38°02' E 023°36'0 0.0
2015-May-27 14:29N 38°02' E 023°36'0 0.0
2015-May-27 13:05N 38°02' E 023°36'0 0.0
2015-May-27 12:31N 38°02' E 023°36'3 2.5
2015-May-27 11:24N 38°02' E 023°32'5 5.8
2015-May-27 10:33N 37°57' E 023°34'7 7.5
2015-May-27 09:33N 37°51' E 023°40'1010.2
2015-May-27 08:33N 37°42' E 023°45'9 9.3
2015-May-27 07:33N 37°38' E 023°56'  
2015-May-23 23:24N 36°30' E 027°39'8 9.1
2015-May-23 22:31N 36°31' E 027°29'9 9.1
2015-May-23 21:34N 36°31' E 027°18'9 9.2
2015-May-23 20:33N 36°31' E 027°06'19 9.0
2015-May-23 18:28N 36°40' E 026°46'9 9.5
2015-May-23 17:33N 36°46' E 026°37'11 9.4
2015-May-23 16:23N 36°52' E 026°26'8 9.2
2015-May-23 15:33N 36°56' E 026°18'12 9.0
2015-May-23 14:15N 37°02' E 026°05'8 9.0
2015-May-23 13:24N 37°06' E 025°57'7 8.9
2015-May-23 12:34N 37°10' E 025°49'9 9.0
2015-May-23 11:33N 37°13' E 025°38'9 9.2
2015-May-23 10:33N 37°15' E 025°27'9 9.5
2015-May-23 09:33N 37°17' E 025°15'9 9.1
2015-May-23 08:33N 37°19' E 025°04'9 8.9
2015-May-23 07:33N 37°21' E 024°53'54 9.0
2015-May-23 01:33N 37°38' E 023°48'9 8.8
2015-May-23 00:33N 37°44' E 023°40'9 8.7
2015-May-22 23:34N 37°49' E 023°32'9 8.8
2015-May-22 22:33N 37°54' E 023°22'8 7.7
2015-May-22 21:33N 38°00' E 023°28'6 0.7
2015-May-22 12:33N 38°01' E 023°35'0 0.0
2015-May-22 10:33N 38°01' E 023°35'0 0.0
2015-May-22 09:33N 38°01' E 023°35'0 0.0
2015-May-22 08:33N 38°01' E 023°35'0 0.0
2015-May-22 07:33N 38°01' E 023°35'0 0.0
2015-May-22 06:33N 38°01' E 023°35'1 0.2
2015-May-22 02:33N 38°02' E 023°36'0 0.0
2015-May-22 01:11N 38°02' E 023°36'0 0.0
2015-May-22 00:22N 38°02' E 023°36'0 0.0
2015-May-21 23:32N 38°02' E 023°36'0 0.0
2015-May-21 22:33N 38°02' E 023°36'0 0.0
2015-May-21 21:33N 38°02' E 023°36'0 0.0
2015-May-21 20:33N 38°02' E 023°36'3 2.6
2015-May-21 19:33N 38°01' E 023°32'12 1.3
2015-May-21 10:33N 37°56' E 023°19'1110.6
2015-May-21 09:33N 37°54' E 023°06'32 7.9
2015-May-21 05:32N 38°09' E 022°31'127 9.0
2015-May-20 15:24N 39°19' E 020°15'910.3
2015-May-20 14:33N 39°26' E 020°08'1010.2
2015-May-20 13:33N 39°34' E 020°00'8 8.5
2015-May-20 12:33N 39°39' E 019°51'0 0.4
2015-May-20 11:33N 39°39' E 019°51'0 0.0
2015-May-20 10:33N 39°39' E 019°51'0 0.0
2015-May-20 09:33N 39°39' E 019°51'0 0.0
2015-May-20 08:33N 39°39' E 019°51'0 0.0
2015-May-20 07:33N 39°39' E 019°51'0 0.0
2015-May-20 06:33N 39°39' E 019°51'0 0.0
2015-May-20 05:33N 39°39' E 019°51'0 0.2
2015-May-20 04:34N 39°39' E 019°51'1 1.5
2015-May-20 03:33N 39°39' E 019°53'0 0.0
2015-May-20 02:33N 39°39' E 019°53'0 0.1
2015-May-20 01:33N 39°38' E 019°53'0 0.0
2015-May-20 00:33N 39°39' E 019°53'0 0.1
2015-May-19 23:33N 39°39' E 019°53'0 0.0
2015-May-19 22:33N 39°39' E 019°53'0 0.0
2015-May-19 21:33N 39°39' E 019°53'0 0.0
2015-May-19 20:33N 39°39' E 019°53'0 0.1
2015-May-19 19:34N 39°39' E 019°53'0 0.0
2015-May-19 18:33N 39°38' E 019°53'0 0.1
2015-May-19 14:34N 39°38' E 019°53'0 0.0
2015-May-19 13:32N 39°38' E 019°53'0 0.0
2015-May-19 12:32N 39°38' E 019°53'0 0.0
2015-May-19 11:32N 39°38' E 019°53'0 0.0
2015-May-19 10:32N 39°38' E 019°53'0 0.0
2015-May-19 09:32N 39°38' E 019°53'0 0.0
2015-May-19 08:32N 39°38' E 019°53'0 0.0
2015-May-19 07:32N 39°38' E 019°53'0 0.0
2015-May-19 06:32N 39°38' E 019°53'0 0.0
2015-May-19 05:32N 39°38' E 019°53'2 1.7
2015-May-19 04:32N 39°39' E 019°55'10 9.8
2015-May-19 03:33N 39°32' E 020°03'1010.3
2015-May-19 02:33N 39°24' E 020°11'162 8.3
2015-May-18 07:08N 37°54' E 023°03'6 9.6
2015-May-18 06:29N 37°55' E 023°11'910.1
2015-May-18 05:33N 37°57' E 023°23'8 8.1
2015-May-18 04:33N 38°02' E 023°31'4 3.0
2015-May-18 03:23N 38°02' E 023°36'0 0.0
2015-May-18 02:30N 38°02' E 023°36'0 0.0
2015-May-18 01:33N 38°02' E 023°36'0 0.0
2015-May-18 00:33N 38°02' E 023°36'0 0.0
2015-May-17 23:32N 38°02' E 023°36'4 4.1
2015-May-17 22:33N 38°02' E 023°31'1 0.2
2015-May-17 20:16N 38°02' E 023°30'0 0.0
2015-May-17 19:28N 38°02' E 023°30'  

Dump ship's entire track history